Time;durP1;ratioP1;P1;durP2;ratioP2;P2;SDS_P1;SDS_P2;PMS_P1;PMS_P2;Temp;Humidity;BMP_temperature;BMP_pressure;BME280_temperature;BME280_humidity;BME280_pressure;Samples;Min_cycle;Max_cycle;Signal;HPM_P1;HPM_P2
2022/11/19 00:00:48;;;;;;;;;178.00;177.80;;;;;9.11;76.46;100367.81;5015193;28;45382;-79
2022/11/19 00:03:15;;;;;;;;;171.67;170.67;;;;;9.27;76.40;100407.75;5015055;28;45232;-79
2022/11/19 00:05:42;;;;;;;;;181.60;181.40;;;;;9.25;76.14;100401.53;5014162;28;45358;-79
2022/11/19 00:08:09;;;;;;;;;180.00;180.00;;;;;9.22;76.39;100400.56;5014077;28;45638;-80
2022/11/19 00:10:36;;;;;;;;;180.00;180.00;;;;;9.10;76.40;100390.53;5015525;28;45485;-82
2022/11/19 00:13:02;;;;;;;;;185.50;184.67;;;;;9.17;76.50;100399.53;5015324;28;46090;-79
2022/11/19 00:15:28;;;;;;;;;167.17;167.17;;;;;9.08;76.45;100393.94;5014528;28;45629;-80
2022/11/19 00:17:53;;;;;;;;;176.60;176.40;;;;;9.17;76.47;100400.41;5015352;28;45255;-80
2022/11/19 00:20:18;;;;;;;;;168.00;168.00;;;;;9.18;76.66;100402.19;5015591;28;45593;-78
2022/11/19 00:22:44;;;;;;;;;178.25;177.50;;;;;9.18;76.47;100402.19;5014873;28;46141;-78
2022/11/19 00:25:10;;;;;;;;;176.00;175.25;;;;;9.15;76.42;100402.06;5015338;28;45498;-78
2022/11/19 00:27:36;;;;;;;;;184.00;184.00;;;;;9.11;76.39;100391.41;5015252;28;45228;-80
2022/11/19 00:30:02;;;;;;;;;178.25;178.00;;;;;9.02;76.65;100384.16;5013708;28;45464;-79
2022/11/19 00:32:27;;;;;;;;;187.40;186.60;;;;;8.96;76.33;100369.06;5015144;28;45483;-78
2022/11/19 00:34:53;;;;;;;;;163.75;162.25;;;;;9.00;76.65;100381.44;5015047;28;48250;-80
2022/11/19 00:37:18;;;;;;;;;182.00;181.20;;;;;9.07;76.46;100393.06;5015150;28;45449;-78
2022/11/19 00:39:43;;;;;;;;;183.33;182.33;;;;;9.01;76.26;100387.59;5015102;28;45338;-80
2022/11/19 00:42:08;;;;;;;;;175.50;175.50;;;;;8.82;76.51;100358.94;5014687;28;45942;-79
2022/11/19 00:44:34;;;;;;;;;176.25;176.25;;;;;9.01;76.47;100392.81;5014355;28;45480;-80
2022/11/19 00:46:59;;;;;;;;;177.80;177.40;;;;;8.85;76.61;100375.69;5015161;28;45700;-80
2022/11/19 00:49:24;;;;;;;;;184.25;184.25;;;;;8.97;76.51;100407.56;5014952;28;45434;-78
2022/11/19 00:51:50;;;;;;;;;177.50;177.25;;;;;8.79;76.60;100381.59;5014212;28;59607;-78
2022/11/19 00:54:15;;;;;;;;;184.00;182.75;;;;;8.91;76.78;100395.97;5014848;28;45452;-80
2022/11/19 00:56:40;;;;;;;;;177.75;177.50;;;;;8.81;76.73;100391.22;5014880;28;45308;-81
2022/11/19 00:59:06;;;;;;;;;185.00;185.00;;;;;8.92;76.42;100408.25;5014953;28;45302;-80
2022/11/19 01:01:31;;;;;;;;;177.80;176.20;;;;;8.89;76.80;100402.88;5014051;28;45481;-79
2022/11/19 01:03:57;;;;;;;;;175.00;175.00;;;;;8.82;76.90;100401.78;5014730;28;45343;-78
2022/11/19 01:06:24;;;;;;;;;173.80;173.80;;;;;8.92;77.04;100409.16;5014930;28;45280;-79
2022/11/19 01:08:50;;;;;;;;;174.17;173.67;;;;;8.88;77.00;100408.97;5018097;28;45240;-78
2022/11/19 01:11:23;;;;;;;;;175.80;175.80;;;;;8.95;77.06;100429.31;5018248;28;46011;-79
2022/11/19 01:13:48;;;;;;;;;182.50;182.00;;;;;8.90;76.97;100418.66;5017973;28;45397;-79
2022/11/19 01:16:19;;;;;;;;;176.00;175.60;;;;;8.94;76.99;100424.91;5017473;28;45515;-80
2022/11/19 01:18:47;;;;;;;;;176.80;176.60;;;;;8.93;77.23;100417.91;5018193;28;45309;-79
2022/11/19 01:21:14;;;;;;;;;174.40;174.40;;;;;8.93;77.42;100417.91;5017741;28;45365;-78
2022/11/19 01:23:40;;;;;;;;;168.60;168.60;;;;;8.90;77.12;100423.91;5018097;28;45284;-80
2022/11/19 01:26:06;;;;;;;;;177.00;176.25;;;;;8.78;77.14;100408.63;5018050;28;45377;-78
2022/11/19 01:28:32;;;;;;;;;169.40;169.20;;;;;8.74;76.78;100398.88;5017943;28;45483;-78
2022/11/19 01:30:57;;;;;;;;;173.60;173.60;;;;;8.78;77.08;100408.63;5016454;28;46177;-80
2022/11/19 01:33:23;;;;;;;;;176.25;176.25;;;;;8.85;76.99;100429.81;5016643;28;45346;-79
2022/11/19 01:35:56;;;;;;;;;179.17;179.17;;;;;8.78;77.13;100416.50;5017673;28;45323;-79
2022/11/19 01:38:22;;;;;;;;;170.67;170.67;;;;;8.70;77.17;100404.84;5016936;28;45482;-77
2022/11/19 01:40:47;;;;;;;;;182.20;182.20;;;;;8.80;77.12;100424.41;5017628;28;45965;-79
2022/11/19 01:43:13;;;;;;;;;173.20;173.20;;;;;8.77;77.14;100425.22;5017415;28;48397;-80
2022/11/19 01:45:47;;;;;;;;;178.20;177.60;;;;;8.81;77.13;100443.63;5017612;28;45431;-78
2022/11/19 01:48:26;;;;;;;;;173.40;173.40;;;;;8.79;76.97;100433.13;5010345;28;45383;-79
2022/11/19 01:50:55;;;;;;;;;184.33;184.33;;;;;8.68;76.98;100414.38;5017563;28;46320;-80
2022/11/19 01:53:24;;;;;;;;;180.17;180.17;;;;;8.66;77.00;100429.13;5017364;28;45546;-78
2022/11/19 01:55:50;;;;;;;;;185.33;184.67;;;;;8.74;76.88;100438.19;5017539;28;45468;-78
2022/11/19 01:58:21;;;;;;;;;183.50;183.50;;;;;8.73;77.00;100440.75;5016204;28;45567;-78
2022/11/19 02:00:47;;;;;;;;;188.83;188.50;;;;;8.68;77.29;100440.59;5017084;28;46375;-78
2022/11/19 02:03:14;;;;;;;;;172.80;172.80;;;;;8.56;76.99;100419.16;5016965;28;45458;-78
2022/11/19 02:05:41;;;;;;;;;175.50;175.50;;;;;8.59;77.22;100426.25;5017389;28;45496;-78
2022/11/19 02:08:08;;;;;;;;;171.00;170.80;;;;;8.67;77.22;100443.13;5017329;28;45303;-78
2022/11/19 02:10:57;;;;;;;;;175.40;173.80;;;;;8.65;77.27;100437.84;5017317;28;46091;-79
2022/11/19 02:13:39;;;;;;;;;176.20;175.80;;;;;8.65;77.26;100435.22;5017222;28;45350;-78
2022/11/19 02:16:40;;;;;;;;;164.60;164.40;;;;;8.65;77.43;100435.22;5016358;28;45401;-80
2022/11/19 02:19:27;;;;;;;;;174.80;174.80;;;;;8.65;77.46;100436.94;4984307;28;45469;-79
2022/11/19 02:22:31;;;;;;;;;175.00;173.60;;;;;8.62;77.26;100429.88;5015326;28;46166;-79
2022/11/19 02:25:16;;;;;;;;;172.00;172.00;;;;;8.63;77.61;100444.75;5016996;28;45332;-80
2022/11/19 02:27:51;;;;;;;;;175.40;175.20;;;;;8.53;77.34;100419.94;5017114;28;45623;-79
2022/11/19 02:30:18;;;;;;;;;164.60;164.60;;;;;8.58;77.16;100434.94;5016990;28;45587;-79
2022/11/19 02:32:57;;;;;;;;;171.20;171.20;;;;;8.38;77.17;100419.38;5016406;28;46371;-79
2022/11/19 02:36:01;;;;;;;;;156.40;156.40;;;;;8.50;77.12;100443.41;5015607;28;45418;-79
2022/11/19 02:38:40;;;;;;;;;152.40;152.40;;;;;8.46;77.07;100458.94;5017013;28;45322;-80
2022/11/19 02:41:47;;;;;;;;;153.40;153.40;;;;;8.43;77.04;100453.59;5016819;28;45484;-78
2022/11/19 02:47:17;;;;;;;;;132.50;131.75;;;;;8.27;77.15;100429.41;5011262;28;45467;-78
2022/11/19 02:49:44;;;;;;;;;128.20;127.60;;;;;8.28;77.17;100440.78;5014419;28;45399;-80
2022/11/19 02:52:11;;;;;;;;;113.80;113.40;;;;;8.28;77.39;100446.00;5014120;28;45931;-79
2022/11/19 02:54:36;;;;;;;;;122.40;122.40;;;;;8.16;77.48;100428.06;5016062;28;46169;-80
2022/11/19 02:57:02;;;;;;;;;116.75;114.25;;;;;8.15;77.60;100435.88;5015790;28;46044;-78
2022/11/19 03:05:23;;;;;;;;;142.75;142.75;;;;;8.24;77.77;100447.59;5013120;28;45447;-79
2022/11/19 03:07:49;;;;;;;;;140.25;139.50;;;;;8.30;77.50;100451.28;5016185;28;45324;-78
2022/11/19 03:10:17;;;;;;;;;119.50;119.50;;;;;8.09;77.88;100410.38;5014931;28;45217;-78
2022/11/19 03:12:48;;;;;;;;;120.80;120.80;;;;;8.33;77.48;100451.44;5006758;28;45357;-79
2022/11/19 03:18:04;;;;;;;;;147.75;147.50;;;;;8.34;77.54;100453.19;5015010;28;45419;-78
2022/11/19 03:20:54;;;;;;;;;144.60;144.60;;;;;8.22;77.87;100428.31;5016325;28;45605;-79
2022/11/19 03:23:33;;;;;;;;;150.20;150.20;;;;;8.23;77.96;100422.28;5015455;28;45387;-78
2022/11/19 03:26:06;;;;;;;;;131.20;129.20;;;;;8.44;77.72;100450.13;5015834;28;46489;-80
2022/11/19 03:28:36;;;;;;;;;118.25;118.00;;;;;8.45;77.70;100446.69;5012930;28;45437;-79
2022/11/19 03:31:04;;;;;;;;;110.20;109.40;;;;;8.45;77.53;100442.31;5013773;28;45461;-81
2022/11/19 03:33:38;;;;;;;;;119.80;118.80;;;;;8.38;77.67;100439.44;5013958;28;45677;-80
2022/11/19 03:36:16;;;;;;;;;124.60;124.40;;;;;8.30;77.66;100433.84;5014646;28;46173;-80
2022/11/19 03:38:50;;;;;;;;;124.00;124.00;;;;;8.36;77.62;100439.34;5014880;28;45300;-78
2022/11/19 03:41:19;;;;;;;;;110.50;110.50;;;;;8.52;78.06;100462.69;5016035;28;45280;-81
2022/11/19 03:43:50;;;;;;;;;107.50;107.50;;;;;8.60;77.89;100456.84;5015923;28;45309;-78
2022/11/19 03:46:19;;;;;;;;;99.60;98.60;;;;;8.67;77.81;100451.91;5014191;28;46553;-79
2022/11/19 03:48:50;;;;;;;;;113.40;112.60;;;;;8.71;77.51;100448.53;5015565;28;45339;-79
2022/11/19 03:51:23;;;;;;;;;127.50;127.50;;;;;8.78;77.82;100447.06;5016120;28;45478;-78
2022/11/19 03:53:48;;;;;;;;;131.00;131.00;;;;;8.77;77.83;100445.28;5014703;28;45314;-77
2022/11/19 03:56:19;;;;;;;;;140.00;140.00;;;;;8.89;77.77;100453.56;5014726;28;45471;-80
2022/11/19 03:58:46;;;;;;;;;138.40;138.40;;;;;8.96;77.74;100459.91;5015462;28;45602;-80
2022/11/19 04:01:12;;;;;;;;;140.50;140.25;;;;;9.03;77.37;100469.81;5030240;28;45478;-78
2022/11/19 04:03:37;;;;;;;;;141.25;141.25;;;;;9.03;77.54;100460.22;5014668;28;45418;-79
2022/11/19 04:06:04;;;;;;;;;153.75;153.75;;;;;9.08;77.66;100460.38;5014518;28;46561;-79
2022/11/19 04:08:30;;;;;;;;;132.00;131.25;;;;;9.14;77.73;100457.06;5013291;28;45777;-80
2022/11/19 04:10:57;;;;;;;;;153.20;153.20;;;;;9.08;77.35;100442.03;5015678;28;45255;-79
2022/11/19 04:13:23;;;;;;;;;154.60;154.00;;;;;9.21;77.14;100465.22;5015121;28;45422;-81
2022/11/19 04:15:48;;;;;;;;;151.20;151.20;;;;;9.20;77.03;100455.56;5014511;28;46183;-79
2022/11/19 04:18:14;;;;;;;;;152.00;152.00;;;;;9.24;77.10;100465.31;5015517;28;45490;-80
2022/11/19 04:20:39;;;;;;;;;164.25;164.25;;;;;9.13;77.13;100442.19;5015440;28;45455;-79
2022/11/19 04:23:04;;;;;;;;;140.50;140.50;;;;;9.16;77.30;100448.44;5015280;28;45370;-81
2022/11/19 04:25:29;;;;;;;;;164.75;163.50;;;;;9.26;77.44;100465.38;5015388;28;45990;-79
2022/11/19 04:27:55;;;;;;;;;162.80;162.60;;;;;9.27;77.31;100464.56;5015405;28;45319;-80
2022/11/19 04:30:20;;;;;;;;;176.00;175.20;;;;;9.32;77.01;100475.22;5014731;28;45428;-79
2022/11/19 04:32:45;;;;;;;;;170.60;170.60;;;;;9.32;77.11;100488.31;5014842;28;45374;-78
2022/11/19 04:35:12;;;;;;;;;167.60;167.40;;;;;9.34;76.94;100484.91;5014955;28;53060;-80
2022/11/19 04:37:38;;;;;;;;;158.80;158.40;;;;;9.35;77.08;100484.06;5015271;28;45237;-78
2022/11/19 04:40:04;;;;;;;;;163.60;163.00;;;;;9.26;77.04;100467.97;5015272;28;45429;-80
2022/11/19 04:42:29;;;;;;;;;164.00;164.00;;;;;9.26;77.12;100466.28;5018640;28;45499;-79
2022/11/19 04:44:54;;;;;;;;;177.50;177.50;;;;;9.43;77.21;100494.81;5018584;28;46936;-79
2022/11/19 04:47:19;;;;;;;;;166.50;166.00;;;;;9.47;77.29;100494.09;5017050;28;45534;-79
2022/11/19 04:49:45;;;;;;;;;154.80;154.60;;;;;9.40;77.18;100476.34;5014952;28;48089;-80
2022/11/19 04:52:10;;;;;;;;;172.40;172.40;;;;;9.51;77.10;100494.25;5018582;28;45769;-78
2022/11/19 04:54:35;;;;;;;;;162.60;162.20;;;;;9.56;77.32;100502.28;5005599;28;45249;-80
2022/11/19 04:57:01;;;;;;;;;177.40;177.40;;;;;9.58;76.94;100497.97;5010931;28;45316;-78
2022/11/19 04:59:26;;;;;;;;;169.25;169.00;;;;;9.59;76.67;100491.88;5018370;28;45343;-79
2022/11/19 05:01:52;;;;;;;;;176.50;176.50;;;;;9.63;76.92;100498.13;5018134;28;45146;-78
2022/11/19 05:04:17;;;;;;;;;167.50;167.50;;;;;9.64;76.84;100492.03;5018220;28;45741;-79
2022/11/19 05:06:42;;;;;;;;;168.60;168.60;;;;;9.67;76.74;100493.06;5018409;28;45326;-79
2022/11/19 05:09:08;;;;;;;;;158.50;158.50;;;;;9.68;76.56;100499.19;5018329;28;45655;-78
2022/11/19 05:11:33;;;;;;;;;162.00;162.00;;;;;9.71;76.75;100505.44;5018342;28;45401;-80
2022/11/19 05:13:58;;;;;;;;;173.75;173.50;;;;;9.73;76.75;100505.47;5017678;28;46252;-79
2022/11/19 05:16:24;;;;;;;;;158.60;158.60;;;;;9.73;76.65;100503.75;5016155;28;45528;-81
2022/11/19 05:18:49;;;;;;;;;162.20;162.20;;;;;9.74;76.94;100502.00;5018010;28;45394;-80
2022/11/19 05:21:14;;;;;;;;;162.00;162.00;;;;;9.64;77.11;100485.06;5018021;28;45275;-78
2022/11/19 05:23:40;;;;;;;;;157.00;156.25;;;;;9.75;76.81;100502.09;5016783;28;55466;-81
2022/11/19 05:26:05;;;;;;;;;158.50;157.75;;;;;9.76;77.16;100505.59;5017836;28;45489;-80
2022/11/19 05:28:31;;;;;;;;;156.60;156.20;;;;;9.77;77.24;100510.00;5017896;28;45489;-79
2022/11/19 05:30:58;;;;;;;;;171.67;171.50;;;;;9.73;77.54;100505.47;5017720;28;45374;-78
2022/11/19 05:33:23;;;;;;;;;174.50;174.50;;;;;9.80;77.25;100518.88;5017448;28;46298;-80
2022/11/19 05:35:49;;;;;;;;;162.80;162.60;;;;;9.83;77.37;100523.31;5017854;28;45512;-80
2022/11/19 05:38:14;;;;;;;;;157.25;156.00;;;;;9.85;77.34;100523.38;5018053;28;45452;-80
2022/11/19 05:40:40;;;;;;;;;150.25;149.75;;;;;9.87;77.23;100522.59;5017794;28;45350;-82
2022/11/19 05:43:06;;;;;;;;;153.75;153.75;;;;;9.86;77.37;100514.69;5017403;28;48609;-81
2022/11/19 05:45:31;;;;;;;;;152.25;152.25;;;;;9.88;77.27;100519.13;5017451;28;45233;-82
2022/11/19 05:47:57;;;;;;;;;153.25;153.00;;;;;9.89;77.21;100520.00;5017422;28;45236;-78
2022/11/19 05:50:22;;;;;;;;;135.50;135.50;;;;;9.86;77.21;100514.69;5017359;28;45437;-81
2022/11/19 05:52:48;;;;;;;;;135.25;134.25;;;;;9.77;77.08;100499.50;5016481;28;46160;-81
2022/11/19 05:55:13;;;;;;;;;130.50;130.00;;;;;9.79;77.09;100516.19;5017649;28;45451;-79
2022/11/19 05:57:38;;;;;;;;;128.75;128.50;;;;;9.73;77.42;100513.34;5017939;28;45391;-81
2022/11/19 06:00:04;;;;;;;;;124.00;124.00;;;;;9.72;77.42;100522.97;5016805;28;45317;-78
2022/11/19 06:02:30;;;;;;;;;123.20;123.20;;;;;9.63;77.39;100511.25;5016696;28;45474;-79
2022/11/19 06:04:55;;;;;;;;;128.60;128.40;;;;;9.72;77.48;100517.72;5013666;28;52244;-79
2022/11/19 06:07:20;;;;;;;;;118.75;118.00;;;;;9.63;77.55;100514.78;5016453;28;45460;-81
2022/11/19 06:09:46;;;;;;;;;120.33;118.67;;;;;9.54;77.53;100504.84;5017421;28;45532;-78
2022/11/19 06:12:11;;;;;;;;;126.00;125.75;;;;;9.57;77.58;100511.94;5016949;28;45454;-78
2022/11/19 06:14:36;;;;;;;;;116.00;115.50;;;;;9.42;77.57;100493.94;5017277;28;45505;-78
2022/11/19 06:17:02;;;;;;;;;110.25;110.00;;;;;9.48;77.71;100516.88;5016374;28;53749;-78
2022/11/19 06:19:27;;;;;;;;;119.25;119.25;;;;;9.37;77.56;100519.13;5017629;28;45465;-78
2022/11/19 06:21:53;;;;;;;;;113.00;113.00;;;;;9.35;77.55;100528.63;5016920;28;45534;-79
2022/11/19 06:24:19;;;;;;;;;119.20;118.60;;;;;9.27;77.79;100531.00;5017505;28;45335;-79
2022/11/19 06:26:44;;;;;;;;;120.20;119.80;;;;;9.20;77.91;100526.34;5017503;28;45399;-80
2022/11/19 06:29:13;;;;;;;;;128.60;128.40;;;;;9.14;78.32;100526.13;5017071;28;45407;-79
2022/11/19 06:31:38;;;;;;;;;130.40;129.40;;;;;9.13;78.17;100526.97;5016336;28;45454;-79
2022/11/19 06:34:03;;;;;;;;;138.50;137.75;;;;;9.09;78.28;100530.31;5001399;28;45537;-78
2022/11/19 06:36:29;;;;;;;;;132.50;132.50;;;;;9.17;78.19;100536.75;4996769;28;45544;-78
2022/11/19 06:38:54;;;;;;;;;133.25;133.25;;;;;9.12;78.29;100526.94;5006029;28;45311;-81
2022/11/19 06:41:20;;;;;;;;;129.00;129.00;;;;;9.04;78.39;100514.41;5016336;28;46090;-81
2022/11/19 06:43:45;;;;;;;;;121.00;121.00;;;;;9.20;78.24;100541.19;5005409;28;45579;-79
2022/11/19 06:46:12;;;;;;;;;132.25;132.00;;;;;9.20;78.28;100544.72;5016042;28;45343;-78
2022/11/19 06:48:37;;;;;;;;;132.60;132.60;;;;;9.17;78.21;100544.63;5007109;28;45337;-78
2022/11/19 06:51:03;;;;;;;;;122.25;122.25;;;;;9.05;78.12;100531.03;4996200;28;48370;-81
2022/11/19 06:53:29;;;;;;;;;122.00;120.20;;;;;9.15;78.34;100566.34;4996092;28;45700;-77
2022/11/19 06:56:00;;;;;;;;;146.75;146.25;;;;;9.14;78.15;100562.84;5005637;28;45231;-82
2022/11/19 06:58:26;;;;;;;;;135.80;135.40;;;;;9.14;78.48;100564.56;5008820;28;45447;-81
2022/11/19 07:00:52;;;;;;;;;129.60;129.60;;;;;9.16;78.46;100574.31;5003572;28;45609;-81
2022/11/19 07:03:17;;;;;;;;;135.00;135.00;;;;;9.08;78.59;100546.00;5008938;28;45540;-83
2022/11/19 07:05:42;;;;;;;;;128.25;128.00;;;;;9.24;78.40;100564.97;4994079;28;45434;-83
2022/11/19 07:08:08;;;;;;;;;122.40;122.20;;;;;9.24;78.32;100562.34;5014709;28;45617;-83
2022/11/19 07:10:33;;;;;;;;;120.75;120.25;;;;;9.34;78.48;100565.31;5015525;28;45876;-82
2022/11/19 07:15:56;;;;;;;;;128.20;127.80;;;;;9.37;78.31;100575.94;6153023;22;46710;31
2022/11/19 07:18:21;;;;;;;;;130.40;130.40;;;;;9.31;78.35;100571.34;5028680;28;45370;-83
2022/11/19 07:20:46;;;;;;;;;155.25;155.25;;;;;9.43;78.41;100584.00;5016463;28;48510;-81
2022/11/19 07:23:12;;;;;;;;;126.50;125.75;;;;;9.44;78.40;100583.16;5013342;28;45446;-82
2022/11/19 07:25:37;;;;;;;;;122.80;122.00;;;;;9.45;78.31;100590.19;5013524;28;45316;-79
2022/11/19 07:28:03;;;;;;;;;142.40;142.40;;;;;9.35;78.02;100578.47;5034013;28;45719;-81
2022/11/19 07:30:30;;;;;;;;;129.80;129.20;;;;;9.43;78.20;100595.38;5033236;28;46314;-82
2022/11/19 07:32:55;;;;;;;;;128.00;128.00;;;;;9.23;77.83;100562.31;5029062;28;45417;-80
2022/11/19 07:35:20;;;;;;;;;127.80;127.00;;;;;9.34;77.91;100602.03;5049243;28;45197;-81
2022/11/19 07:37:46;;;;;;;;;116.00;116.00;;;;;9.22;77.99;100582.38;5048198;28;45183;-79
2022/11/19 07:40:13;;;;;;;;;130.00;129.60;;;;;9.00;78.07;100549.22;5049341;28;51170;-84
2022/11/19 07:42:48;;;;;;;;;137.17;137.17;;;;;9.24;78.28;100601.69;5049374;28;45186;-88
2022/11/19 07:45:14;;;;;;;;;124.80;124.40;;;;;9.30;78.39;100601.00;5050339;28;44975;-84
2022/11/19 07:47:39;;;;;;;;;133.83;133.00;;;;;9.36;78.26;100610.84;5049961;28;45010;-85
2022/11/19 07:50:05;;;;;;;;;123.40;123.40;;;;;9.07;78.02;100566.09;5031643;28;47035;-85
2022/11/19 07:52:30;;;;;;;;;124.60;123.60;;;;;9.16;78.15;100570.75;5050383;28;45100;-84
2022/11/19 07:54:56;;;;;;;;;121.60;121.60;;;;;9.43;77.99;100612.88;5048778;28;45103;-82
2022/11/19 07:57:22;;;;;;;;;134.80;134.60;;;;;9.46;77.92;100623.47;5049491;28;45059;-83
2022/11/19 07:59:47;;;;;;;;;129.50;129.00;;;;;9.45;78.15;100619.94;5048196;28;45425;-81
2022/11/19 08:02:13;;;;;;;;;135.60;134.20;;;;;9.44;77.95;100618.16;5040905;28;45446;-82
2022/11/19 08:04:38;;;;;;;;;140.50;140.50;;;;;9.48;77.90;100629.66;5036216;28;45643;-80
2022/11/19 08:07:04;;;;;;;;;134.60;134.60;;;;;9.29;77.83;100600.13;5049313;28;44949;-79
2022/11/19 08:09:29;;;;;;;;;136.20;135.20;;;;;9.41;77.82;100635.50;5047196;28;45363;-79
2022/11/19 08:11:54;;;;;;;;;140.00;140.00;;;;;9.37;78.21;100645.00;5047917;28;49663;-80
2022/11/19 08:14:19;;;;;;;;;122.60;121.60;;;;;9.37;78.23;100646.75;5047407;28;44979;-80
2022/11/19 08:19:29;;;;;;;;;133.00;132.67;;;;;9.36;78.28;100647.56;5047808;28;45190;-82
2022/11/19 08:21:54;;;;;;;;;130.25;130.25;;;;;9.25;78.44;100636.66;5042427;28;45123;-81
2022/11/19 08:24:20;;;;;;;;;143.40;143.00;;;;;9.30;78.91;100653.47;5033624;28;45371;-84
2022/11/19 08:26:45;;;;;;;;;147.00;147.00;;;;;9.39;78.37;100668.66;5032983;28;45557;-80
2022/11/19 08:29:13;;;;;;;;;155.50;154.25;;;;;9.41;78.73;100673.16;5032490;28;46516;-80
2022/11/19 08:31:39;;;;;;;;;160.60;159.80;;;;;9.50;78.64;100665.59;5032070;28;45275;-81
2022/11/19 08:34:05;;;;;;;;;138.20;137.60;;;;;9.51;78.27;100642.91;5033427;28;45275;-81
2022/11/19 08:36:30;;;;;;;;;139.00;138.50;;;;;9.77;78.22;100673.63;5027715;28;45497;-84
2022/11/19 08:38:59;;;;;;;;;135.80;135.80;;;;;9.76;77.90;100660.44;5048249;28;45880;-79
2022/11/19 08:44:11;;;;;;;;;128.67;128.33;;;;;9.96;77.48;100679.53;5046582;28;45191;-81
2022/11/19 08:46:37;;;;;;;;;130.33;130.17;;;;;9.83;77.59;100644.06;5035846;28;45446;-83
2022/11/19 08:49:02;;;;;;;;;145.20;145.00;;;;;9.99;77.66;100662.13;5029398;28;45415;-82
2022/11/19 08:51:27;;;;;;;;;139.25;137.25;;;;;10.17;77.59;100680.28;5031884;28;45387;-79
2022/11/19 08:53:53;;;;;;;;;131.50;131.50;;;;;10.27;77.58;100687.69;5031569;28;45661;-79
2022/11/19 08:56:19;;;;;;;;;128.80;128.80;;;;;10.35;77.37;100689.69;5030033;28;45467;-80
2022/11/19 08:58:45;;;;;;;;;114.75;114.00;;;;;10.46;77.38;100694.47;5028132;28;45840;-82
2022/11/19 09:01:12;;;;;;;;;123.25;123.25;;;;;10.52;77.35;100691.16;5032437;28;45282;-85
2022/11/19 09:03:38;;;;;;;;;136.00;135.60;;;;;10.52;77.29;100675.38;5033575;28;45355;-80
2022/11/19 09:06:04;;;;;;;;;125.50;125.50;;;;;10.68;77.37;100690.81;5037109;28;45361;-81
2022/11/19 09:08:32;;;;;;;;;115.20;115.20;;;;;10.75;76.90;100699.81;5042719;28;45745;-82
2022/11/19 09:10:58;;;;;;;;;116.20;116.20;;;;;10.75;76.87;100687.56;5047049;28;45176;-79
2022/11/19 09:13:24;;;;;;;;;126.75;126.50;;;;;10.88;76.94;100701.09;5047927;28;45099;-79
2022/11/19 09:15:50;;;;;;;;;121.60;121.00;;;;;10.79;76.66;100673.69;5047811;28;45064;-82
2022/11/19 09:18:16;;;;;;;;;132.20;131.00;;;;;10.88;76.39;100675.69;5048143;28;45520;-81
2022/11/19 09:20:41;;;;;;;;;128.75;128.00;;;;;11.02;76.36;100690.16;5025078;28;45448;-80
2022/11/19 09:23:07;;;;;;;;;114.67;114.67;;;;;11.06;76.27;100699.06;5038718;28;45326;-80
2022/11/19 09:25:32;;;;;;;;;124.60;123.80;;;;;11.10;76.14;100698.31;5046072;28;44991;-83
2022/11/19 09:27:58;;;;;;;;;116.60;116.40;;;;;11.08;76.13;100686.84;5044067;28;45375;-83
2022/11/19 09:30:23;;;;;;;;;121.80;120.40;;;;;11.06;75.89;100680.66;5036997;28;45403;-79
2022/11/19 09:32:49;;;;;;;;;118.00;117.80;;;;;11.21;75.85;100699.53;5038282;28;45785;-82
2022/11/19 09:35:14;;;;;;;;;118.00;116.75;;;;;11.19;76.10;100702.97;5032216;28;45503;-82
2022/11/19 09:37:39;;;;;;;;;111.00;111.00;;;;;11.28;75.77;100704.16;5035264;28;46027;-84
2022/11/19 09:40:07;;;;;;;;;105.25;104.75;;;;;11.35;75.71;100699.97;5039747;28;45698;-82
2022/11/19 09:43:03;;;;;;;;;105.00;105.00;;;;;11.43;75.74;100715.97;5041999;28;45454;-82
2022/11/19 09:45:31;;;;;;;;;105.20;105.20;;;;;11.49;75.69;100710.91;5030504;28;45290;-82
2022/11/19 09:48:05;;;;;;;;;108.40;107.40;;;;;11.53;75.19;100713.69;5044450;28;45366;-82
2022/11/19 09:50:50;;;;;;;;;101.40;101.40;;;;;11.47;75.62;100692.44;5032126;28;45150;-82
2022/11/19 09:53:21;;;;;;;;;114.40;114.00;;;;;11.53;75.35;100695.25;5034091;28;45010;-82
2022/11/19 09:55:49;;;;;;;;;115.50;115.50;;;;;11.68;75.09;100702.72;5051873;28;45246;-82
2022/11/19 09:58:21;;;;;;;;;131.00;130.33;;;;;11.81;74.93;100723.28;5052195;28;45069;-82
2022/11/19 10:00:46;;;;;;;;;137.83;137.67;;;;;11.68;74.72;100691.31;5052332;28;44930;-82
2022/11/19 10:03:19;;;;;;;;;152.40;152.40;;;;;11.71;74.70;100697.53;5051740;28;45062;-82
2022/11/19 10:06:06;;;;;;;;;168.50;168.33;;;;;11.85;74.35;100717.28;5051010;28;44999;-82
2022/11/19 10:08:45;;;;;;;;;180.00;179.60;;;;;11.70;74.29;100689.59;5051992;28;45080;-82
2022/11/19 10:11:34;;;;;;;;;178.25;178.00;;;;;11.82;74.19;100704.06;5052788;28;45266;-82
2022/11/19 10:14:24;;;;;;;;;168.40;168.40;;;;;11.93;74.08;100720.16;5048744;28;45226;-82
2022/11/19 10:17:02;;;;;;;;;148.75;148.75;;;;;11.80;73.67;100707.44;5032189;28;45257;-82
2022/11/19 10:19:50;;;;;;;;;150.00;150.00;;;;;12.01;73.99;100723.88;5033978;28;45584;-82
2022/11/19 10:22:36;;;;;;;;;134.80;134.60;;;;;12.05;73.37;100723.13;5034483;28;45588;-82
2022/11/19 10:25:21;;;;;;;;;134.80;134.60;;;;;12.12;73.94;100714.56;5034519;28;45579;-83
2022/11/19 10:27:53;;;;;;;;;143.25;143.25;;;;;12.00;73.42;100689.59;5035678;28;45305;-83
2022/11/19 10:30:22;;;;;;;;;143.60;143.60;;;;;12.05;73.42;100702.03;5045785;28;46915;-83
2022/11/19 10:32:56;;;;;;;;;133.80;133.20;;;;;12.19;72.96;100723.50;5035074;28;45695;-83
2022/11/19 10:35:27;;;;;;;;;117.20;117.00;;;;;11.94;72.87;100663.09;5021296;28;45768;-83
2022/11/19 10:37:57;;;;;;;;;116.67;116.67;;;;;12.29;72.86;100719.38;5031240;28;45503;-83
2022/11/19 10:40:27;;;;;;;;;108.80;108.80;;;;;12.31;72.92;100718.56;5034610;28;47158;-82
2022/11/19 10:43:16;;;;;;;;;95.40;94.20;;;;;12.20;72.38;100688.41;5046844;28;45239;-83
2022/11/19 10:45:42;;;;;;;;;99.20;99.00;;;;;12.34;72.57;100705.47;5050399;28;44980;-81
2022/11/19 10:48:22;;;;;;;;;97.75;97.00;;;;;12.33;73.01;100682.63;5031368;28;44963;-82
2022/11/19 10:50:49;;;;;;;;;98.00;98.00;;;;;12.32;72.34;100688.75;5041158;28;45736;-82
2022/11/19 10:53:31;;;;;;;;;92.60;90.80;;;;;12.37;72.81;100702.94;5035870;28;45896;-82
2022/11/19 10:56:05;;;;;;;;;93.25;91.25;;;;;12.13;72.59;100674.19;5049551;28;45455;-82
2022/11/19 10:58:41;;;;;;;;;89.40;86.40;;;;;12.25;72.71;100702.59;5060775;28;45836;-83
2022/11/19 11:01:19;;;;;;;;;92.20;89.40;;;;;12.17;72.80;100709.41;5055581;28;45240;-82
2022/11/19 11:03:49;;;;;;;;;91.40;90.00;;;;;11.97;72.77;100694.78;5042783;28;45329;-82
2022/11/19 11:06:14;;;;;;;;;96.20;95.60;;;;;11.96;72.70;100706.16;5042354;28;45430;-80
2022/11/19 11:08:52;;;;;;;;;91.00;89.00;;;;;12.02;73.19;100715.16;5039982;28;45591;-82
2022/11/19 11:17:17;;;;;;;;;84.75;79.25;;;;;12.29;72.71;100715.00;5031404;28;45486;-85
2022/11/19 11:19:43;;;;;;;;;82.50;73.25;;;;;12.36;72.91;100713.41;5030745;28;45605;-83
2022/11/19 11:22:08;;;;;;;;;73.67;62.33;;;;;12.36;72.69;100694.97;5032363;28;45293;-85
2022/11/19 11:24:37;;;;;;;;;38.75;34.25;;;;;12.40;72.46;100686.28;5032409;28;45583;-89
2022/11/19 11:27:39;;;;;;;;;61.00;49.75;;;;;12.35;72.06;100646.63;5017539;28;46880;-85
2022/11/19 11:30:10;;;;;;;;;55.00;46.50;;;;;13.03;72.11;100695.78;5032252;28;45637;-91
2022/11/19 11:32:37;;;;;;;;;63.75;52.75;;;;;13.10;71.93;100679.22;5034166;28;46071;-83
2022/11/19 11:35:04;;;;;;;;;66.60;54.40;;;;;13.26;71.50;100667.34;5033733;28;45652;-87